sensor_id;sensor_type;location;lat;lon;timestamp;temperature;humidity
45643;DHT22;31358;46.008;11.144;2023-02-28T00:01:24;3.70;89.50
45643;DHT22;31358;46.008;11.144;2023-02-28T00:03:49;3.70;89.60
45643;DHT22;31358;46.008;11.144;2023-02-28T00:06:15;3.80;89.50
45643;DHT22;31358;46.008;11.144;2023-02-28T00:08:41;3.80;89.40
45643;DHT22;31358;46.008;11.144;2023-02-28T00:11:11;3.90;89.40
45643;DHT22;31358;46.008;11.144;2023-02-28T00:13:39;3.90;89.70
45643;DHT22;31358;46.008;11.144;2023-02-28T00:16:08;4.00;89.10
45643;DHT22;31358;46.008;11.144;2023-02-28T00:18:34;4.00;89.00
45643;DHT22;31358;46.008;11.144;2023-02-28T00:21:00;4.10;89.10
45643;DHT22;31358;46.008;11.144;2023-02-28T00:23:27;4.00;89.10
45643;DHT22;31358;46.008;11.144;2023-02-28T00:25:53;4.00;89.60
45643;DHT22;31358;46.008;11.144;2023-02-28T00:28:19;4.10;89.90
45643;DHT22;31358;46.008;11.144;2023-02-28T00:30:45;4.10;89.50
45643;DHT22;31358;46.008;11.144;2023-02-28T00:33:11;4.20;89.80
45643;DHT22;31358;46.008;11.144;2023-02-28T00:35:36;4.10;89.50
45643;DHT22;31358;46.008;11.144;2023-02-28T00:38:02;4.10;89.60
45643;DHT22;31358;46.008;11.144;2023-02-28T00:40:29;4.00;89.70
45643;DHT22;31358;46.008;11.144;2023-02-28T00:42:54;3.90;89.80
45643;DHT22;31358;46.008;11.144;2023-02-28T00:45:20;3.90;89.60
45643;DHT22;31358;46.008;11.144;2023-02-28T00:47:46;4.10;89.90
45643;DHT22;31358;46.008;11.144;2023-02-28T00:50:24;4.00;89.70
45643;DHT22;31358;46.008;11.144;2023-02-28T00:52:49;4.00;89.80
45643;DHT22;31358;46.008;11.144;2023-02-28T00:55:15;4.00;90.00
45643;DHT22;31358;46.008;11.144;2023-02-28T00:57:41;4.10;90.00
45643;DHT22;31358;46.008;11.144;2023-02-28T01:00:08;4.10;90.00
45643;DHT22;31358;46.008;11.144;2023-02-28T01:02:34;4.30;89.70
45643;DHT22;31358;46.008;11.144;2023-02-28T01:05:00;4.30;89.30
45643;DHT22;31358;46.008;11.144;2023-02-28T01:07:25;4.30;89.30
45643;DHT22;31358;46.008;11.144;2023-02-28T01:09:51;4.40;89.10
45643;DHT22;31358;46.008;11.144;2023-02-28T01:12:17;4.40;89.00
45643;DHT22;31358;46.008;11.144;2023-02-28T01:14:42;4.30;88.90
45643;DHT22;31358;46.008;11.144;2023-02-28T01:17:09;4.30;89.10
45643;DHT22;31358;46.008;11.144;2023-02-28T01:19:35;4.30;89.50
45643;DHT22;31358;46.008;11.144;2023-02-28T01:22:05;4.30;89.20
45643;DHT22;31358;46.008;11.144;2023-02-28T01:24:32;4.40;89.30
45643;DHT22;31358;46.008;11.144;2023-02-28T01:26:57;4.40;89.00
45643;DHT22;31358;46.008;11.144;2023-02-28T01:29:23;4.40;89.00
45643;DHT22;31358;46.008;11.144;2023-02-28T01:31:48;4.40;88.70
45643;DHT22;31358;46.008;11.144;2023-02-28T01:34:14;4.50;88.70
45643;DHT22;31358;46.008;11.144;2023-02-28T01:36:40;4.50;88.80
45643;DHT22;31358;46.008;11.144;2023-02-28T01:39:05;4.50;89.00
45643;DHT22;31358;46.008;11.144;2023-02-28T01:41:34;4.40;89.30
45643;DHT22;31358;46.008;11.144;2023-02-28T01:44:01;4.40;88.60
45643;DHT22;31358;46.008;11.144;2023-02-28T01:46:30;4.50;88.90
45643;DHT22;31358;46.008;11.144;2023-02-28T01:51:41;4.50;88.90
45643;DHT22;31358;46.008;11.144;2023-02-28T01:54:14;4.50;89.00
45643;DHT22;31358;46.008;11.144;2023-02-28T01:56:53;4.60;88.70
45643;DHT22;31358;46.008;11.144;2023-02-28T01:59:29;4.60;88.50
45643;DHT22;31358;46.008;11.144;2023-02-28T02:01:57;4.50;88.60
45643;DHT22;31358;46.008;11.144;2023-02-28T02:04:27;4.40;89.20
45643;DHT22;31358;46.008;11.144;2023-02-28T02:06:56;4.50;89.70
45643;DHT22;31358;46.008;11.144;2023-02-28T02:09:23;4.50;89.10
45643;DHT22;31358;46.008;11.144;2023-02-28T02:11:49;4.60;88.70
45643;DHT22;31358;46.008;11.144;2023-02-28T02:22:57;4.60;87.80
45643;DHT22;31358;46.008;11.144;2023-02-28T02:25:56;4.60;87.80
45643;DHT22;31358;46.008;11.144;2023-02-28T02:28:52;4.70;87.50
45643;DHT22;31358;46.008;11.144;2023-02-28T02:36:40;4.70;87.80
45643;DHT22;31358;46.008;11.144;2023-02-28T02:39:30;4.70;87.80
45643;DHT22;31358;46.008;11.144;2023-02-28T02:42:01;4.70;87.70
45643;DHT22;31358;46.008;11.144;2023-02-28T02:44:39;4.60;87.50
45643;DHT22;31358;46.008;11.144;2023-02-28T02:47:12;4.60;87.60
45643;DHT22;31358;46.008;11.144;2023-02-28T02:49:43;4.60;87.90
45643;DHT22;31358;46.008;11.144;2023-02-28T02:52:14;4.60;87.80
45643;DHT22;31358;46.008;11.144;2023-02-28T02:54:41;4.60;87.50
45643;DHT22;31358;46.008;11.144;2023-02-28T02:57:20;4.70;87.30
45643;DHT22;31358;46.008;11.144;2023-02-28T02:59:47;4.60;87.50
45643;DHT22;31358;46.008;11.144;2023-02-28T03:02:15;4.50;87.40
45643;DHT22;31358;46.008;11.144;2023-02-28T03:05:06;4.50;87.60
45643;DHT22;31358;46.008;11.144;2023-02-28T03:07:33;4.60;87.30
45643;DHT22;31358;46.008;11.144;2023-02-28T03:09:59;4.50;87.90
45643;DHT22;31358;46.008;11.144;2023-02-28T03:12:33;4.40;88.10
45643;DHT22;31358;46.008;11.144;2023-02-28T03:15:09;4.50;87.70
45643;DHT22;31358;46.008;11.144;2023-02-28T03:17:46;4.50;87.90
45643;DHT22;31358;46.008;11.144;2023-02-28T03:26:17;4.60;88.00
45643;DHT22;31358;46.008;11.144;2023-02-28T03:31:37;4.50;88.00
45643;DHT22;31358;46.008;11.144;2023-02-28T03:34:12;4.50;88.10
45643;DHT22;31358;46.008;11.144;2023-02-28T03:36:43;4.50;87.90
45643;DHT22;31358;46.008;11.144;2023-02-28T03:39:23;4.50;87.70
45643;DHT22;31358;46.008;11.144;2023-02-28T03:42:04;4.50;87.80
45643;DHT22;31358;46.008;11.144;2023-02-28T03:47:32;4.30;88.10
45643;DHT22;31358;46.008;11.144;2023-02-28T03:50:10;4.40;88.10
45643;DHT22;31358;46.008;11.144;2023-02-28T03:52:44;4.30;88.20
45643;DHT22;31358;46.008;11.144;2023-02-28T03:55:13;4.40;88.20
45643;DHT22;31358;46.008;11.144;2023-02-28T04:00:38;4.30;88.30
45643;DHT22;31358;46.008;11.144;2023-02-28T04:03:05;4.40;88.30
45643;DHT22;31358;46.008;11.144;2023-02-28T04:05:32;4.40;88.30
45643;DHT22;31358;46.008;11.144;2023-02-28T04:08:06;4.40;88.30
45643;DHT22;31358;46.008;11.144;2023-02-28T04:10:32;4.30;88.60
45643;DHT22;31358;46.008;11.144;2023-02-28T04:12:58;4.40;88.40
45643;DHT22;31358;46.008;11.144;2023-02-28T04:15:24;4.40;88.60
45643;DHT22;31358;46.008;11.144;2023-02-28T04:17:50;4.40;88.10
45643;DHT22;31358;46.008;11.144;2023-02-28T04:20:16;4.30;88.10
45643;DHT22;31358;46.008;11.144;2023-02-28T04:22:42;4.20;88.00
45643;DHT22;31358;46.008;11.144;2023-02-28T04:25:08;4.30;88.70
45643;DHT22;31358;46.008;11.144;2023-02-28T04:27:34;4.30;88.70
45643;DHT22;31358;46.008;11.144;2023-02-28T04:29:59;4.40;89.30
45643;DHT22;31358;46.008;11.144;2023-02-28T04:32:25;4.40;90.00
45643;DHT22;31358;46.008;11.144;2023-02-28T04:34:51;4.20;89.10
45643;DHT22;31358;46.008;11.144;2023-02-28T04:37:16;4.20;89.50
45643;DHT22;31358;46.008;11.144;2023-02-28T04:39:43;4.20;89.50
45643;DHT22;31358;46.008;11.144;2023-02-28T04:42:09;4.30;88.00
45643;DHT22;31358;46.008;11.144;2023-02-28T04:44:34;4.20;89.20
45643;DHT22;31358;46.008;11.144;2023-02-28T04:47:00;4.30;88.80
45643;DHT22;31358;46.008;11.144;2023-02-28T04:49:26;4.10;87.80
45643;DHT22;31358;46.008;11.144;2023-02-28T04:51:52;4.20;88.30
45643;DHT22;31358;46.008;11.144;2023-02-28T04:54:18;4.00;88.30
45643;DHT22;31358;46.008;11.144;2023-02-28T04:56:44;3.80;89.10
45643;DHT22;31358;46.008;11.144;2023-02-28T04:59:10;3.80;89.20
45643;DHT22;31358;46.008;11.144;2023-02-28T05:01:35;3.80;89.30
45643;DHT22;31358;46.008;11.144;2023-02-28T05:04:03;3.80;89.40
45643;DHT22;31358;46.008;11.144;2023-02-28T05:06:32;3.80;89.40
45643;DHT22;31358;46.008;11.144;2023-02-28T05:08:58;3.90;89.50
45643;DHT22;31358;46.008;11.144;2023-02-28T05:11:32;3.90;89.50
45643;DHT22;31358;46.008;11.144;2023-02-28T05:14:06;3.80;89.70
45643;DHT22;31358;46.008;11.144;2023-02-28T05:16:32;3.70;90.00
45643;DHT22;31358;46.008;11.144;2023-02-28T05:18:58;3.60;90.00
45643;DHT22;31358;46.008;11.144;2023-02-28T05:21:36;3.50;90.30
45643;DHT22;31358;46.008;11.144;2023-02-28T05:24:11;3.60;90.10
45643;DHT22;31358;46.008;11.144;2023-02-28T05:26:39;3.60;90.00
45643;DHT22;31358;46.008;11.144;2023-02-28T05:29:05;3.60;89.90
45643;DHT22;31358;46.008;11.144;2023-02-28T05:31:31;3.40;90.10
45643;DHT22;31358;46.008;11.144;2023-02-28T05:33:57;3.40;90.30
45643;DHT22;31358;46.008;11.144;2023-02-28T05:36:23;3.40;90.30
45643;DHT22;31358;46.008;11.144;2023-02-28T05:38:50;3.20;90.40
45643;DHT22;31358;46.008;11.144;2023-02-28T05:41:16;3.20;90.40
45643;DHT22;31358;46.008;11.144;2023-02-28T05:43:43;3.20;90.50
45643;DHT22;31358;46.008;11.144;2023-02-28T05:46:11;3.20;90.60
45643;DHT22;31358;46.008;11.144;2023-02-28T05:48:38;3.20;90.80
45643;DHT22;31358;46.008;11.144;2023-02-28T05:51:05;3.20;90.90
45643;DHT22;31358;46.008;11.144;2023-02-28T05:53:31;3.30;90.90
45643;DHT22;31358;46.008;11.144;2023-02-28T05:55:57;3.20;90.80
45643;DHT22;31358;46.008;11.144;2023-02-28T05:58:23;3.10;90.70
45643;DHT22;31358;46.008;11.144;2023-02-28T06:00:51;3.00;90.60
45643;DHT22;31358;46.008;11.144;2023-02-28T06:03:16;2.90;90.80
45643;DHT22;31358;46.008;11.144;2023-02-28T06:05:42;2.60;91.50
45643;DHT22;31358;46.008;11.144;2023-02-28T06:08:08;2.50;91.90
45643;DHT22;31358;46.008;11.144;2023-02-28T06:10:34;2.20;92.50
45643;DHT22;31358;46.008;11.144;2023-02-28T06:13:01;2.40;91.90
45643;DHT22;31358;46.008;11.144;2023-02-28T06:15:28;2.30;92.10
45643;DHT22;31358;46.008;11.144;2023-02-28T06:17:54;2.30;92.40
45643;DHT22;31358;46.008;11.144;2023-02-28T06:20:22;2.30;92.30
45643;DHT22;31358;46.008;11.144;2023-02-28T06:22:48;2.20;92.60
45643;DHT22;31358;46.008;11.144;2023-02-28T06:25:16;2.00;93.10
45643;DHT22;31358;46.008;11.144;2023-02-28T06:27:42;2.10;92.90
45643;DHT22;31358;46.008;11.144;2023-02-28T06:30:10;2.30;92.30
45643;DHT22;31358;46.008;11.144;2023-02-28T06:32:36;2.20;92.20
45643;DHT22;31358;46.008;11.144;2023-02-28T06:35:02;2.20;92.40
45643;DHT22;31358;46.008;11.144;2023-02-28T06:37:30;2.20;92.50
45643;DHT22;31358;46.008;11.144;2023-02-28T06:39:55;2.20;92.40
45643;DHT22;31358;46.008;11.144;2023-02-28T06:42:22;2.20;92.40
45643;DHT22;31358;46.008;11.144;2023-02-28T06:44:51;2.30;92.20
45643;DHT22;31358;46.008;11.144;2023-02-28T06:47:17;2.30;92.20
45643;DHT22;31358;46.008;11.144;2023-02-28T06:49:42;2.30;92.40
45643;DHT22;31358;46.008;11.144;2023-02-28T06:52:10;2.30;92.30
45643;DHT22;31358;46.008;11.144;2023-02-28T06:54:36;2.40;92.30
45643;DHT22;31358;46.008;11.144;2023-02-28T06:57:02;2.40;92.10
45643;DHT22;31358;46.008;11.144;2023-02-28T06:59:28;2.40;92.40
45643;DHT22;31358;46.008;11.144;2023-02-28T07:01:54;2.30;92.50
45643;DHT22;31358;46.008;11.144;2023-02-28T07:04:21;2.30;92.70
45643;DHT22;31358;46.008;11.144;2023-02-28T07:06:47;2.40;92.40
45643;DHT22;31358;46.008;11.144;2023-02-28T07:09:12;2.70;92.20
45643;DHT22;31358;46.008;11.144;2023-02-28T07:11:39;2.90;91.60
45643;DHT22;31358;46.008;11.144;2023-02-28T07:14:06;2.90;91.70
45643;DHT22;31358;46.008;11.144;2023-02-28T07:16:32;3.00;91.70
45643;DHT22;31358;46.008;11.144;2023-02-28T07:18:58;3.10;91.40
45643;DHT22;31358;46.008;11.144;2023-02-28T07:21:24;3.20;91.30
45643;DHT22;31358;46.008;11.144;2023-02-28T07:23:50;3.40;91.20
45643;DHT22;31358;46.008;11.144;2023-02-28T07:26:18;3.40;91.20
45643;DHT22;31358;46.008;11.144;2023-02-28T07:28:46;3.50;91.20
45643;DHT22;31358;46.008;11.144;2023-02-28T07:31:12;3.50;91.20
45643;DHT22;31358;46.008;11.144;2023-02-28T07:33:39;3.70;91.10
45643;DHT22;31358;46.008;11.144;2023-02-28T07:36:08;3.70;91.10
45643;DHT22;31358;46.008;11.144;2023-02-28T07:38:36;3.60;91.40
45643;DHT22;31358;46.008;11.144;2023-02-28T07:41:03;3.60;91.20
45643;DHT22;31358;46.008;11.144;2023-02-28T07:43:32;3.70;91.20
45643;DHT22;31358;46.008;11.144;2023-02-28T07:46:07;3.80;91.20
45643;DHT22;31358;46.008;11.144;2023-02-28T07:48:33;3.80;91.40
45643;DHT22;31358;46.008;11.144;2023-02-28T07:50:59;3.90;91.50
45643;DHT22;31358;46.008;11.144;2023-02-28T07:53:26;3.70;92.10
45643;DHT22;31358;46.008;11.144;2023-02-28T07:55:58;3.60;92.30
45643;DHT22;31358;46.008;11.144;2023-02-28T07:58:25;3.60;92.80
45643;DHT22;31358;46.008;11.144;2023-02-28T08:00:51;3.50;93.70
45643;DHT22;31358;46.008;11.144;2023-02-28T08:03:21;3.40;92.80
45643;DHT22;31358;46.008;11.144;2023-02-28T08:05:47;3.40;92.70
45643;DHT22;31358;46.008;11.144;2023-02-28T08:08:13;3.50;93.00
45643;DHT22;31358;46.008;11.144;2023-02-28T08:10:39;3.50;92.80
45643;DHT22;31358;46.008;11.144;2023-02-28T08:13:04;3.40;93.00
45643;DHT22;31358;46.008;11.144;2023-02-28T08:15:30;3.40;92.90
45643;DHT22;31358;46.008;11.144;2023-02-28T08:17:56;3.50;93.10
45643;DHT22;31358;46.008;11.144;2023-02-28T08:20:23;3.40;92.60
45643;DHT22;31358;46.008;11.144;2023-02-28T08:22:50;3.50;92.80
45643;DHT22;31358;46.008;11.144;2023-02-28T08:25:16;3.80;93.10
45643;DHT22;31358;46.008;11.144;2023-02-28T08:27:42;3.80;92.60
45643;DHT22;31358;46.008;11.144;2023-02-28T08:30:13;3.80;92.40
45643;DHT22;31358;46.008;11.144;2023-02-28T08:32:39;3.80;92.50
45643;DHT22;31358;46.008;11.144;2023-02-28T08:35:05;3.90;92.50
45643;DHT22;31358;46.008;11.144;2023-02-28T08:37:31;3.80;92.50
45643;DHT22;31358;46.008;11.144;2023-02-28T08:39:56;4.00;92.30
45643;DHT22;31358;46.008;11.144;2023-02-28T08:42:23;3.90;92.10
45643;DHT22;31358;46.008;11.144;2023-02-28T08:44:48;4.10;92.20
45643;DHT22;31358;46.008;11.144;2023-02-28T08:47:14;4.10;91.90
45643;DHT22;31358;46.008;11.144;2023-02-28T08:49:40;4.30;91.70
45643;DHT22;31358;46.008;11.144;2023-02-28T08:52:06;4.40;91.80
45643;DHT22;31358;46.008;11.144;2023-02-28T08:54:32;4.50;91.80
45643;DHT22;31358;46.008;11.144;2023-02-28T08:56:58;4.50;92.00
45643;DHT22;31358;46.008;11.144;2023-02-28T08:59:24;4.60;92.40
45643;DHT22;31358;46.008;11.144;2023-02-28T09:01:50;4.80;92.10
45643;DHT22;31358;46.008;11.144;2023-02-28T09:04:15;4.80;91.80
45643;DHT22;31358;46.008;11.144;2023-02-28T09:06:41;4.80;91.70
45643;DHT22;31358;46.008;11.144;2023-02-28T09:09:07;4.90;91.50
45643;DHT22;31358;46.008;11.144;2023-02-28T09:11:34;5.00;91.60
45643;DHT22;31358;46.008;11.144;2023-02-28T09:14:01;5.10;91.90
45643;DHT22;31358;46.008;11.144;2023-02-28T09:16:29;5.50;91.50
45643;DHT22;31358;46.008;11.144;2023-02-28T09:18:56;5.30;91.60
45643;DHT22;31358;46.008;11.144;2023-02-28T09:21:21;5.10;91.40
45643;DHT22;31358;46.008;11.144;2023-02-28T09:23:49;5.10;91.20
45643;DHT22;31358;46.008;11.144;2023-02-28T09:26:23;5.10;91.50
45643;DHT22;31358;46.008;11.144;2023-02-28T09:28:49;5.30;91.70
45643;DHT22;31358;46.008;11.144;2023-02-28T09:31:17;5.40;91.50
45643;DHT22;31358;46.008;11.144;2023-02-28T09:33:47;5.50;91.30
45643;DHT22;31358;46.008;11.144;2023-02-28T09:36:12;5.60;91.40
45643;DHT22;31358;46.008;11.144;2023-02-28T09:38:38;5.70;91.00
45643;DHT22;31358;46.008;11.144;2023-02-28T09:41:12;5.90;91.00
45643;DHT22;31358;46.008;11.144;2023-02-28T09:43:43;5.60;91.00
45643;DHT22;31358;46.008;11.144;2023-02-28T09:46:29;5.60;90.90
45643;DHT22;31358;46.008;11.144;2023-02-28T09:48:57;5.80;90.30
45643;DHT22;31358;46.008;11.144;2023-02-28T09:51:28;5.90;90.40
45643;DHT22;31358;46.008;11.144;2023-02-28T09:53:55;6.00;90.50
45643;DHT22;31358;46.008;11.144;2023-02-28T09:56:25;6.10;90.10
45643;DHT22;31358;46.008;11.144;2023-02-28T09:59:18;6.20;90.00
45643;DHT22;31358;46.008;11.144;2023-02-28T10:02:16;6.30;90.00
45643;DHT22;31358;46.008;11.144;2023-02-28T10:05:04;6.40;90.00
45643;DHT22;31358;46.008;11.144;2023-02-28T10:10:29;6.40;89.30
45643;DHT22;31358;46.008;11.144;2023-02-28T10:12:58;6.70;89.00
45643;DHT22;31358;46.008;11.144;2023-02-28T10:15:26;6.70;87.80
45643;DHT22;31358;46.008;11.144;2023-02-28T10:18:01;6.60;86.80
45643;DHT22;31358;46.008;11.144;2023-02-28T10:20:32;6.60;87.20
45643;DHT22;31358;46.008;11.144;2023-02-28T10:23:17;6.90;89.00
45643;DHT22;31358;46.008;11.144;2023-02-28T10:25:48;7.10;88.50
45643;DHT22;31358;46.008;11.144;2023-02-28T10:28:16;7.10;87.90
45643;DHT22;31358;46.008;11.144;2023-02-28T10:30:49;7.00;87.60
45643;DHT22;31358;46.008;11.144;2023-02-28T10:33:32;7.00;87.40
45643;DHT22;31358;46.008;11.144;2023-02-28T10:36:00;7.00;87.20
45643;DHT22;31358;46.008;11.144;2023-02-28T10:38:31;7.00;86.80
45643;DHT22;31358;46.008;11.144;2023-02-28T10:41:06;7.40;87.00
45643;DHT22;31358;46.008;11.144;2023-02-28T10:43:32;7.70;86.70
45643;DHT22;31358;46.008;11.144;2023-02-28T10:46:00;7.80;86.70
45643;DHT22;31358;46.008;11.144;2023-02-28T10:49:17;7.80;86.00
45643;DHT22;31358;46.008;11.144;2023-02-28T10:51:23;7.80;85.10
45643;DHT22;31358;46.008;11.144;2023-02-28T10:53:53;8.10;85.40
45643;DHT22;31358;46.008;11.144;2023-02-28T10:56:21;8.30;86.00
45643;DHT22;31358;46.008;11.144;2023-02-28T11:01:23;8.40;85.40
45643;DHT22;31358;46.008;11.144;2023-02-28T11:03:50;8.50;85.40
45643;DHT22;31358;46.008;11.144;2023-02-28T11:06:30;8.60;84.30
45643;DHT22;31358;46.008;11.144;2023-02-28T11:11:27;8.30;83.40
45643;DHT22;31358;46.008;11.144;2023-02-28T11:13:56;8.50;84.30
45643;DHT22;31358;46.008;11.144;2023-02-28T11:16:33;8.40;83.60
45643;DHT22;31358;46.008;11.144;2023-02-28T11:19:00;8.50;83.20
45643;DHT22;31358;46.008;11.144;2023-02-28T11:21:31;8.50;83.60
45643;DHT22;31358;46.008;11.144;2023-02-28T11:26:48;8.60;82.60
45643;DHT22;31358;46.008;11.144;2023-02-28T11:29:22;8.80;82.50
45643;DHT22;31358;46.008;11.144;2023-02-28T11:32:12;9.00;83.00
45643;DHT22;31358;46.008;11.144;2023-02-28T11:34:38;9.10;83.40
45643;DHT22;31358;46.008;11.144;2023-02-28T11:37:09;9.30;82.40
45643;DHT22;31358;46.008;11.144;2023-02-28T11:39:36;9.40;81.90
45643;DHT22;31358;46.008;11.144;2023-02-28T11:50:53;10.00;80.40
45643;DHT22;31358;46.008;11.144;2023-02-28T11:59:14;10.60;81.00
45643;DHT22;31358;46.008;11.144;2023-02-28T12:04:34;10.10;79.50
45643;DHT22;31358;46.008;11.144;2023-02-28T12:27:24;10.80;79.90
45643;DHT22;31358;46.008;11.144;2023-02-28T12:29:54;11.20;78.40
45643;DHT22;31358;46.008;11.144;2023-02-28T12:32:39;10.90;78.40
45643;DHT22;31358;46.008;11.144;2023-02-28T12:37:45;10.70;78.00
45643;DHT22;31358;46.008;11.144;2023-02-28T12:40:20;10.70;79.10
45643;DHT22;31358;46.008;11.144;2023-02-28T12:42:50;10.70;77.70
45643;DHT22;31358;46.008;11.144;2023-02-28T12:45:25;10.60;79.10
45643;DHT22;31358;46.008;11.144;2023-02-28T12:47:58;10.80;78.80
45643;DHT22;31358;46.008;11.144;2023-02-28T12:50:26;10.90;78.20
45643;DHT22;31358;46.008;11.144;2023-02-28T12:53:08;10.80;77.50
45643;DHT22;31358;46.008;11.144;2023-02-28T12:55:50;10.70;78.30
45643;DHT22;31358;46.008;11.144;2023-02-28T13:09:20;10.90;77.60
45643;DHT22;31358;46.008;11.144;2023-02-28T13:11:51;11.10;78.30
45643;DHT22;31358;46.008;11.144;2023-02-28T13:19:45;11.30;77.60
45643;DHT22;31358;46.008;11.144;2023-02-28T13:29:50;11.30;76.20
45643;DHT22;31358;46.008;11.144;2023-02-28T13:39:50;11.50;76.80
45643;DHT22;31358;46.008;11.144;2023-02-28T13:50:35;11.30;76.30
45643;DHT22;31358;46.008;11.144;2023-02-28T13:55:57;11.30;76.00
45643;DHT22;31358;46.008;11.144;2023-02-28T14:06:32;11.50;76.20
45643;DHT22;31358;46.008;11.144;2023-02-28T14:11:32;11.80;76.20
45643;DHT22;31358;46.008;11.144;2023-02-28T14:14:00;11.80;76.20
45643;DHT22;31358;46.008;11.144;2023-02-28T14:16:34;11.70;75.90
45643;DHT22;31358;46.008;11.144;2023-02-28T14:19:22;11.70;75.70
45643;DHT22;31358;46.008;11.144;2023-02-28T14:31:10;11.70;75.50
45643;DHT22;31358;46.008;11.144;2023-02-28T14:36:30;11.80;75.50
45643;DHT22;31358;46.008;11.144;2023-02-28T14:39:07;12.00;75.50
45643;DHT22;31358;46.008;11.144;2023-02-28T14:41:39;11.90;75.40
45643;DHT22;31358;46.008;11.144;2023-02-28T14:46:44;11.90;74.90
45643;DHT22;31358;46.008;11.144;2023-02-28T14:49:36;11.90;74.80
45643;DHT22;31358;46.008;11.144;2023-02-28T14:52:17;12.00;75.70
45643;DHT22;31358;46.008;11.144;2023-02-28T14:54:43;12.20;75.20
45643;DHT22;31358;46.008;11.144;2023-02-28T15:02:33;12.10;75.40
45643;DHT22;31358;46.008;11.144;2023-02-28T15:05:09;12.10;75.70
45643;DHT22;31358;46.008;11.144;2023-02-28T15:07:43;11.90;75.50
45643;DHT22;31358;46.008;11.144;2023-02-28T15:10:19;12.00;75.80
45643;DHT22;31358;46.008;11.144;2023-02-28T15:13:11;11.80;75.10
45643;DHT22;31358;46.008;11.144;2023-02-28T15:21:15;11.70;75.60
45643;DHT22;31358;46.008;11.144;2023-02-28T15:23:44;11.80;76.50
45643;DHT22;31358;46.008;11.144;2023-02-28T15:26:16;11.80;76.40
45643;DHT22;31358;46.008;11.144;2023-02-28T15:28:43;11.70;76.50
45643;DHT22;31358;46.008;11.144;2023-02-28T15:31:43;11.60;77.00
45643;DHT22;31358;46.008;11.144;2023-02-28T15:34:19;11.50;77.30
45643;DHT22;31358;46.008;11.144;2023-02-28T15:36:45;11.60;77.70
45643;DHT22;31358;46.008;11.144;2023-02-28T15:39:25;11.60;78.00
45643;DHT22;31358;46.008;11.144;2023-02-28T15:42:11;11.70;78.40
45643;DHT22;31358;46.008;11.144;2023-02-28T15:44:37;11.60;78.20
45643;DHT22;31358;46.008;11.144;2023-02-28T15:49:49;11.50;78.10
45643;DHT22;31358;46.008;11.144;2023-02-28T15:52:19;11.50;78.50
45643;DHT22;31358;46.008;11.144;2023-02-28T15:54:46;11.30;78.50
45643;DHT22;31358;46.008;11.144;2023-02-28T15:57:19;11.10;78.20
45643;DHT22;31358;46.008;11.144;2023-02-28T15:59:52;10.90;79.00
45643;DHT22;31358;46.008;11.144;2023-02-28T16:02:34;10.80;80.10
45643;DHT22;31358;46.008;11.144;2023-02-28T16:07:37;10.20;80.70
45643;DHT22;31358;46.008;11.144;2023-02-28T16:10:04;10.00;81.30
45643;DHT22;31358;46.008;11.144;2023-02-28T16:12:31;9.90;81.50
45643;DHT22;31358;46.008;11.144;2023-02-28T16:15:06;9.60;82.20
45643;DHT22;31358;46.008;11.144;2023-02-28T16:17:38;10.00;84.20
45643;DHT22;31358;46.008;11.144;2023-02-28T16:20:33;9.80;82.10
45643;DHT22;31358;46.008;11.144;2023-02-28T16:22:59;9.50;82.10
45643;DHT22;31358;46.008;11.144;2023-02-28T16:25:42;9.50;81.80
45643;DHT22;31358;46.008;11.144;2023-02-28T16:28:25;9.40;82.20
45643;DHT22;31358;46.008;11.144;2023-02-28T16:30:56;9.30;82.80
45643;DHT22;31358;46.008;11.144;2023-02-28T16:33:22;9.20;83.00
45643;DHT22;31358;46.008;11.144;2023-02-28T16:35:48;9.00;83.40
45643;DHT22;31358;46.008;11.144;2023-02-28T16:38:14;9.00;83.30
45643;DHT22;31358;46.008;11.144;2023-02-28T16:40:39;8.90;83.70
45643;DHT22;31358;46.008;11.144;2023-02-28T16:43:09;8.80;83.40
45643;DHT22;31358;46.008;11.144;2023-02-28T16:45:38;8.80;83.50
45643;DHT22;31358;46.008;11.144;2023-02-28T16:48:04;8.70;83.60
45643;DHT22;31358;46.008;11.144;2023-02-28T16:50:30;8.60;83.60
45643;DHT22;31358;46.008;11.144;2023-02-28T16:52:58;8.50;83.30
45643;DHT22;31358;46.008;11.144;2023-02-28T16:55:25;8.50;83.40
45643;DHT22;31358;46.008;11.144;2023-02-28T16:57:54;8.40;84.80
45643;DHT22;31358;46.008;11.144;2023-02-28T17:00:20;8.40;84.00
45643;DHT22;31358;46.008;11.144;2023-02-28T17:02:46;8.30;84.50
45643;DHT22;31358;46.008;11.144;2023-02-28T17:05:12;8.30;84.60
45643;DHT22;31358;46.008;11.144;2023-02-28T17:07:39;8.30;84.30
45643;DHT22;31358;46.008;11.144;2023-02-28T17:10:27;8.20;84.30
45643;DHT22;31358;46.008;11.144;2023-02-28T17:12:53;8.30;85.50
45643;DHT22;31358;46.008;11.144;2023-02-28T17:15:20;8.10;85.30
45643;DHT22;31358;46.008;11.144;2023-02-28T17:17:46;7.80;85.20
45643;DHT22;31358;46.008;11.144;2023-02-28T17:22:39;7.50;85.60
45643;DHT22;31358;46.008;11.144;2023-02-28T17:25:05;7.60;85.60
45643;DHT22;31358;46.008;11.144;2023-02-28T17:27:31;7.60;85.70
45643;DHT22;31358;46.008;11.144;2023-02-28T17:29:57;7.60;85.90
45643;DHT22;31358;46.008;11.144;2023-02-28T17:32:22;7.30;85.90
45643;DHT22;31358;46.008;11.144;2023-02-28T17:34:49;7.30;86.00
45643;DHT22;31358;46.008;11.144;2023-02-28T17:37:15;7.30;86.00
45643;DHT22;31358;46.008;11.144;2023-02-28T17:39:41;7.30;86.20
45643;DHT22;31358;46.008;11.144;2023-02-28T17:42:06;7.40;86.30
45643;DHT22;31358;46.008;11.144;2023-02-28T17:44:33;7.40;86.80
45643;DHT22;31358;46.008;11.144;2023-02-28T17:46:59;7.40;86.80
45643;DHT22;31358;46.008;11.144;2023-02-28T17:49:25;7.20;86.80
45643;DHT22;31358;46.008;11.144;2023-02-28T17:51:50;7.10;87.10
45643;DHT22;31358;46.008;11.144;2023-02-28T17:54:16;7.10;87.60
45643;DHT22;31358;46.008;11.144;2023-02-28T17:56:42;7.20;87.50
45643;DHT22;31358;46.008;11.144;2023-02-28T17:59:11;7.10;87.50
45643;DHT22;31358;46.008;11.144;2023-02-28T18:01:37;7.00;88.10
45643;DHT22;31358;46.008;11.144;2023-02-28T18:04:03;7.00;88.00
45643;DHT22;31358;46.008;11.144;2023-02-28T18:06:49;6.80;88.30
45643;DHT22;31358;46.008;11.144;2023-02-28T18:09:21;6.70;88.40
45643;DHT22;31358;46.008;11.144;2023-02-28T18:11:52;6.60;88.80
45643;DHT22;31358;46.008;11.144;2023-02-28T18:14:20;6.60;89.00
45643;DHT22;31358;46.008;11.144;2023-02-28T18:16:46;6.50;89.00
45643;DHT22;31358;46.008;11.144;2023-02-28T18:19:12;6.60;88.90
45643;DHT22;31358;46.008;11.144;2023-02-28T18:21:43;6.60;88.80
45643;DHT22;31358;46.008;11.144;2023-02-28T18:24:10;6.60;88.80
45643;DHT22;31358;46.008;11.144;2023-02-28T18:26:37;6.50;88.50
45643;DHT22;31358;46.008;11.144;2023-02-28T18:29:03;6.30;88.20
45643;DHT22;31358;46.008;11.144;2023-02-28T18:31:29;6.30;89.20